sensor_id;sensor_type;location;lat;lon;timestamp;P1;durP1;ratioP1;P2;durP2;ratioP2
9280;SDS011;4679;47.966;7.958;2023-05-16T06:02:35;12.63;;;11.33;;
9280;SDS011;4679;47.966;7.958;2023-05-16T06:04:37;12.63;;;11.33;;
9280;SDS011;4679;47.966;7.958;2023-05-16T06:06:39;13.70;;;11.97;;
9280;SDS011;4679;47.966;7.958;2023-05-16T06:08:40;14.43;;;12.93;;
9280;SDS011;4679;47.966;7.958;2023-05-16T06:10:42;14.33;;;10.20;;
9280;SDS011;4679;47.966;7.958;2023-05-16T06:12:44;11.20;;;9.80;;
9280;SDS011;4679;47.966;7.958;2023-05-16T06:14:45;10.47;;;9.37;;
9280;SDS011;4679;47.966;7.958;2023-05-16T06:16:47;11.33;;;9.57;;
9280;SDS011;4679;47.966;7.958;2023-05-16T06:18:50;11.17;;;9.37;;
9280;SDS011;4679;47.966;7.958;2023-05-16T06:20:52;10.20;;;8.50;;
9280;SDS011;4679;47.966;7.958;2023-05-16T06:22:54;10.03;;;8.30;;
9280;SDS011;4679;47.966;7.958;2023-05-16T06:24:55;9.33;;;8.37;;
9280;SDS011;4679;47.966;7.958;2023-05-16T06:26:57;8.80;;;7.90;;
9280;SDS011;4679;47.966;7.958;2023-05-16T06:28:59;9.63;;;7.67;;
9280;SDS011;4679;47.966;7.958;2023-05-16T06:31:00;9.80;;;8.43;;
9280;SDS011;4679;47.966;7.958;2023-05-16T06:33:02;11.63;;;9.27;;
9280;SDS011;4679;47.966;7.958;2023-05-16T06:35:05;11.63;;;8.70;;
9280;SDS011;4679;47.966;7.958;2023-05-16T06:37:08;10.73;;;9.40;;
9280;SDS011;4679;47.966;7.958;2023-05-16T06:39:10;10.83;;;8.60;;
9280;SDS011;4679;47.966;7.958;2023-05-16T06:41:12;10.00;;;8.87;;
9280;SDS011;4679;47.966;7.958;2023-05-16T06:43:13;13.20;;;9.73;;
9280;SDS011;4679;47.966;7.958;2023-05-16T06:45:15;11.57;;;9.07;;
9280;SDS011;4679;47.966;7.958;2023-05-16T06:47:17;12.43;;;8.43;;
9280;SDS011;4679;47.966;7.958;2023-05-16T06:49:19;9.13;;;8.20;;
9280;SDS011;4679;47.966;7.958;2023-05-16T06:51:22;10.50;;;8.40;;
9280;SDS011;4679;47.966;7.958;2023-05-16T06:53:24;12.63;;;8.27;;
9280;SDS011;4679;47.966;7.958;2023-05-16T06:55:26;11.40;;;8.40;;
9280;SDS011;4679;47.966;7.958;2023-05-16T06:57:28;11.23;;;8.60;;
9280;SDS011;4679;47.966;7.958;2023-05-16T06:59:30;9.93;;;7.90;;
9280;SDS011;4679;47.966;7.958;2023-05-16T07:01:31;11.13;;;8.67;;
9280;SDS011;4679;47.966;7.958;2023-05-16T07:03:33;9.27;;;8.10;;
9280;SDS011;4679;47.966;7.958;2023-05-16T07:05:35;11.53;;;8.67;;
9280;SDS011;4679;47.966;7.958;2023-05-16T07:07:38;10.57;;;7.67;;
9280;SDS011;4679;47.966;7.958;2023-05-16T07:09:40;11.90;;;8.47;;
9280;SDS011;4679;47.966;7.958;2023-05-16T07:11:42;9.13;;;7.30;;
9280;SDS011;4679;47.966;7.958;2023-05-16T07:13:44;10.23;;;7.57;;
9280;SDS011;4679;47.966;7.958;2023-05-16T07:15:45;8.53;;;6.90;;
9280;SDS011;4679;47.966;7.958;2023-05-16T07:17:47;7.50;;;6.63;;
9280;SDS011;4679;47.966;7.958;2023-05-16T07:19:49;7.67;;;6.73;;
9280;SDS011;4679;47.966;7.958;2023-05-16T07:21:51;7.43;;;6.33;;
9280;SDS011;4679;47.966;7.958;2023-05-16T07:23:54;8.60;;;6.53;;
9280;SDS011;4679;47.966;7.958;2023-05-16T07:25:57;7.70;;;6.13;;
9280;SDS011;4679;47.966;7.958;2023-05-16T07:27:58;8.00;;;5.50;;
9280;SDS011;4679;47.966;7.958;2023-05-16T07:30:00;5.67;;;4.60;;
9280;SDS011;4679;47.966;7.958;2023-05-16T07:32:02;7.73;;;4.73;;
9280;SDS011;4679;47.966;7.958;2023-05-16T07:34:05;5.80;;;4.63;;
9280;SDS011;4679;47.966;7.958;2023-05-16T07:36:08;5.07;;;4.57;;
9280;SDS011;4679;47.966;7.958;2023-05-16T07:38:11;5.63;;;4.80;;
9280;SDS011;4679;47.966;7.958;2023-05-16T07:40:14;7.63;;;6.13;;
9280;SDS011;4679;47.966;7.958;2023-05-16T07:42:17;8.33;;;6.07;;
9280;SDS011;4679;47.966;7.958;2023-05-16T07:44:19;9.47;;;6.17;;
9280;SDS011;4679;47.966;7.958;2023-05-16T07:46:21;8.60;;;6.57;;
9280;SDS011;4679;47.966;7.958;2023-05-16T07:48:23;13.73;;;7.33;;
9280;SDS011;4679;47.966;7.958;2023-05-16T07:50:26;12.23;;;7.87;;
9280;SDS011;4679;47.966;7.958;2023-05-16T07:52:28;11.53;;;7.63;;
9280;SDS011;4679;47.966;7.958;2023-05-16T07:54:31;14.57;;;8.83;;
9280;SDS011;4679;47.966;7.958;2023-05-16T07:56:34;15.40;;;8.77;;
9280;SDS011;4679;47.966;7.958;2023-05-16T07:58:36;14.63;;;9.23;;
9280;SDS011;4679;47.966;7.958;2023-05-16T08:00:38;17.77;;;11.90;;
9280;SDS011;4679;47.966;7.958;2023-05-16T08:02:39;17.57;;;10.87;;
9280;SDS011;4679;47.966;7.958;2023-05-16T08:04:41;17.10;;;11.83;;
9280;SDS011;4679;47.966;7.958;2023-05-16T08:06:43;19.63;;;12.43;;
9280;SDS011;4679;47.966;7.958;2023-05-16T08:08:46;17.27;;;11.57;;
9280;SDS011;4679;47.966;7.958;2023-05-16T08:10:48;20.93;;;12.50;;
9280;SDS011;4679;47.966;7.958;2023-05-16T08:12:52;18.73;;;11.80;;
9280;SDS011;4679;47.966;7.958;2023-05-16T08:14:54;17.37;;;12.17;;
9280;SDS011;4679;47.966;7.958;2023-05-16T08:16:56;15.13;;;11.27;;
9280;SDS011;4679;47.966;7.958;2023-05-16T08:18:58;18.93;;;13.23;;
9280;SDS011;4679;47.966;7.958;2023-05-16T08:21:00;19.93;;;14.27;;
9280;SDS011;4679;47.966;7.958;2023-05-16T08:23:03;19.77;;;13.53;;
9280;SDS011;4679;47.966;7.958;2023-05-16T08:25:06;20.27;;;13.60;;
9280;SDS011;4679;47.966;7.958;2023-05-16T08:27:08;20.93;;;14.27;;
9280;SDS011;4679;47.966;7.958;2023-05-16T08:29:13;21.03;;;13.90;;
9280;SDS011;4679;47.966;7.958;2023-05-16T08:31:14;23.10;;;14.90;;
9280;SDS011;4679;47.966;7.958;2023-05-16T08:33:16;21.50;;;15.43;;
9280;SDS011;4679;47.966;7.958;2023-05-16T08:35:18;22.63;;;14.97;;
9280;SDS011;4679;47.966;7.958;2023-05-16T08:37:21;22.47;;;14.87;;
9280;SDS011;4679;47.966;7.958;2023-05-16T08:39:22;24.03;;;15.60;;
9280;SDS011;4679;47.966;7.958;2023-05-16T08:41:25;24.13;;;15.47;;
9280;SDS011;4679;47.966;7.958;2023-05-16T08:43:27;23.83;;;15.17;;
9280;SDS011;4679;47.966;7.958;2023-05-16T08:45:30;25.53;;;15.87;;
9280;SDS011;4679;47.966;7.958;2023-05-16T08:47:33;23.97;;;15.27;;
9280;SDS011;4679;47.966;7.958;2023-05-16T08:49:36;26.50;;;16.30;;
9280;SDS011;4679;47.966;7.958;2023-05-16T08:51:41;23.07;;;16.07;;
9280;SDS011;4679;47.966;7.958;2023-05-16T08:53:44;26.77;;;17.67;;
9280;SDS011;4679;47.966;7.958;2023-05-16T08:55:51;30.13;;;17.83;;
9280;SDS011;4679;47.966;7.958;2023-05-16T08:57:53;26.77;;;16.83;;
9280;SDS011;4679;47.966;7.958;2023-05-16T08:59:55;28.53;;;16.60;;
9280;SDS011;4679;47.966;7.958;2023-05-16T09:01:58;32.67;;;18.97;;
9280;SDS011;4679;47.966;7.958;2023-05-16T09:04:01;27.27;;;17.53;;
9280;SDS011;4679;47.966;7.958;2023-05-16T09:06:04;30.13;;;17.33;;
9280;SDS011;4679;47.966;7.958;2023-05-16T09:08:06;26.23;;;17.73;;
9280;SDS011;4679;47.966;7.958;2023-05-16T09:10:08;32.83;;;18.27;;
9280;SDS011;4679;47.966;7.958;2023-05-16T09:12:11;31.13;;;19.40;;
9280;SDS011;4679;47.966;7.958;2023-05-16T09:14:13;33.43;;;19.10;;
9280;SDS011;4679;47.966;7.958;2023-05-16T09:16:15;35.10;;;20.40;;
9280;SDS011;4679;47.966;7.958;2023-05-16T09:18:19;30.17;;;19.27;;
9280;SDS011;4679;47.966;7.958;2023-05-16T09:20:22;33.33;;;19.20;;
9280;SDS011;4679;47.966;7.958;2023-05-16T09:22:23;30.20;;;18.60;;
9280;SDS011;4679;47.966;7.958;2023-05-16T09:24:25;32.67;;;19.30;;
9280;SDS011;4679;47.966;7.958;2023-05-16T09:26:27;32.60;;;19.57;;
9280;SDS011;4679;47.966;7.958;2023-05-16T09:28:29;31.57;;;19.07;;
9280;SDS011;4679;47.966;7.958;2023-05-16T09:30:31;31.33;;;20.23;;
9280;SDS011;4679;47.966;7.958;2023-05-16T09:32:34;30.83;;;18.97;;
9280;SDS011;4679;47.966;7.958;2023-05-16T09:34:41;34.10;;;20.03;;
9280;SDS011;4679;47.966;7.958;2023-05-16T09:36:44;36.07;;;20.47;;
9280;SDS011;4679;47.966;7.958;2023-05-16T09:38:46;34.50;;;19.93;;
9280;SDS011;4679;47.966;7.958;2023-05-16T09:40:49;33.27;;;19.60;;
9280;SDS011;4679;47.966;7.958;2023-05-16T09:42:52;33.90;;;20.27;;
9280;SDS011;4679;47.966;7.958;2023-05-16T09:45:03;35.17;;;20.17;;
9280;SDS011;4679;47.966;7.958;2023-05-16T09:47:05;38.63;;;20.60;;
9280;SDS011;4679;47.966;7.958;2023-05-16T09:49:10;38.03;;;21.83;;
9280;SDS011;4679;47.966;7.958;2023-05-16T09:51:13;38.87;;;21.77;;
9280;SDS011;4679;47.966;7.958;2023-05-16T09:53:16;33.60;;;19.80;;
9280;SDS011;4679;47.966;7.958;2023-05-16T09:55:19;35.93;;;20.77;;
9280;SDS011;4679;47.966;7.958;2023-05-16T09:57:23;35.47;;;22.27;;
9280;SDS011;4679;47.966;7.958;2023-05-16T09:59:27;33.87;;;20.80;;
9280;SDS011;4679;47.966;7.958;2023-05-16T10:01:29;32.93;;;20.53;;
9280;SDS011;4679;47.966;7.958;2023-05-16T10:03:32;36.27;;;21.27;;
9280;SDS011;4679;47.966;7.958;2023-05-16T10:05:35;34.53;;;21.00;;
9280;SDS011;4679;47.966;7.958;2023-05-16T10:07:38;41.70;;;22.03;;
9280;SDS011;4679;47.966;7.958;2023-05-16T10:09:40;36.50;;;21.47;;
9280;SDS011;4679;47.966;7.958;2023-05-16T10:11:44;39.80;;;20.90;;
9280;SDS011;4679;47.966;7.958;2023-05-16T10:13:48;34.57;;;20.53;;
9280;SDS011;4679;47.966;7.958;2023-05-16T10:15:53;38.17;;;20.60;;
9280;SDS011;4679;47.966;7.958;2023-05-16T10:17:56;36.60;;;21.70;;
9280;SDS011;4679;47.966;7.958;2023-05-16T10:20:00;32.30;;;20.30;;
9280;SDS011;4679;47.966;7.958;2023-05-16T10:22:05;35.00;;;20.40;;
9280;SDS011;4679;47.966;7.958;2023-05-16T10:24:08;33.60;;;21.43;;
9280;SDS011;4679;47.966;7.958;2023-05-16T10:26:15;32.93;;;21.10;;
9280;SDS011;4679;47.966;7.958;2023-05-16T10:28:17;40.40;;;21.93;;
9280;SDS011;4679;47.966;7.958;2023-05-16T10:30:19;33.30;;;20.37;;
9280;SDS011;4679;47.966;7.958;2023-05-16T10:32:22;32.70;;;21.27;;
9280;SDS011;4679;47.966;7.958;2023-05-16T10:34:24;36.70;;;22.63;;
9280;SDS011;4679;47.966;7.958;2023-05-16T10:36:27;32.80;;;20.20;;
9280;SDS011;4679;47.966;7.958;2023-05-16T10:38:31;36.87;;;21.07;;
9280;SDS011;4679;47.966;7.958;2023-05-16T10:40:35;37.33;;;20.87;;
9280;SDS011;4679;47.966;7.958;2023-05-16T10:42:42;32.03;;;19.97;;
9280;SDS011;4679;47.966;7.958;2023-05-16T10:44:45;37.80;;;22.03;;
9280;SDS011;4679;47.966;7.958;2023-05-16T10:46:46;32.07;;;20.63;;
9280;SDS011;4679;47.966;7.958;2023-05-16T10:48:48;34.43;;;20.50;;
9280;SDS011;4679;47.966;7.958;2023-05-16T10:50:50;32.60;;;19.93;;
9280;SDS011;4679;47.966;7.958;2023-05-16T10:52:53;33.07;;;19.23;;
9280;SDS011;4679;47.966;7.958;2023-05-16T10:54:55;32.23;;;20.40;;
9280;SDS011;4679;47.966;7.958;2023-05-16T10:56:59;34.50;;;21.20;;
9280;SDS011;4679;47.966;7.958;2023-05-16T10:59:12;33.77;;;20.40;;
9280;SDS011;4679;47.966;7.958;2023-05-16T11:01:24;26.13;;;18.83;;
9280;SDS011;4679;47.966;7.958;2023-05-16T11:03:28;29.90;;;19.37;;
9280;SDS011;4679;47.966;7.958;2023-05-16T11:05:30;30.53;;;19.20;;
9280;SDS011;4679;47.966;7.958;2023-05-16T11:07:33;32.63;;;19.60;;
9280;SDS011;4679;47.966;7.958;2023-05-16T11:09:40;34.23;;;19.87;;
9280;SDS011;4679;47.966;7.958;2023-05-16T11:11:45;28.20;;;19.30;;
9280;SDS011;4679;47.966;7.958;2023-05-16T11:13:54;28.13;;;18.17;;
9280;SDS011;4679;47.966;7.958;2023-05-16T11:18:30;28.03;;;17.23;;
9280;SDS011;4679;47.966;7.958;2023-05-16T11:20:33;30.37;;;17.90;;
9280;SDS011;4679;47.966;7.958;2023-05-16T11:22:37;30.50;;;17.63;;
9280;SDS011;4679;47.966;7.958;2023-05-16T11:24:47;27.57;;;17.17;;
9280;SDS011;4679;47.966;7.958;2023-05-16T11:26:52;27.90;;;16.70;;
9280;SDS011;4679;47.966;7.958;2023-05-16T11:28:55;23.83;;;16.30;;
9280;SDS011;4679;47.966;7.958;2023-05-16T11:30:58;20.73;;;16.20;;
9280;SDS011;4679;47.966;7.958;2023-05-16T11:33:01;27.67;;;16.77;;
9280;SDS011;4679;47.966;7.958;2023-05-16T11:35:03;22.90;;;15.23;;
9280;SDS011;4679;47.966;7.958;2023-05-16T11:37:09;22.00;;;14.90;;
9280;SDS011;4679;47.966;7.958;2023-05-16T11:39:11;22.57;;;15.17;;
9280;SDS011;4679;47.966;7.958;2023-05-16T11:41:13;24.03;;;16.13;;
9280;SDS011;4679;47.966;7.958;2023-05-16T11:43:17;21.53;;;14.60;;
9280;SDS011;4679;47.966;7.958;2023-05-16T11:45:20;22.70;;;15.63;;
9280;SDS011;4679;47.966;7.958;2023-05-16T11:47:24;18.33;;;14.23;;
9280;SDS011;4679;47.966;7.958;2023-05-16T11:49:26;19.67;;;14.23;;
9280;SDS011;4679;47.966;7.958;2023-05-16T11:51:29;18.50;;;13.43;;
9280;SDS011;4679;47.966;7.958;2023-05-16T11:53:31;18.13;;;13.47;;
9280;SDS011;4679;47.966;7.958;2023-05-16T11:55:33;18.33;;;13.63;;
9280;SDS011;4679;47.966;7.958;2023-05-16T11:57:35;18.63;;;12.43;;
9280;SDS011;4679;47.966;7.958;2023-05-16T11:59:37;17.70;;;11.63;;
9280;SDS011;4679;47.966;7.958;2023-05-16T12:01:40;17.27;;;11.77;;
9280;SDS011;4679;47.966;7.958;2023-05-16T12:03:42;12.43;;;10.40;;
9280;SDS011;4679;47.966;7.958;2023-05-16T12:05:48;13.83;;;11.50;;
9280;SDS011;4679;47.966;7.958;2023-05-16T12:07:52;14.53;;;9.77;;
9280;SDS011;4679;47.966;7.958;2023-05-16T12:09:54;11.70;;;9.53;;
9280;SDS011;4679;47.966;7.958;2023-05-16T12:11:57;13.10;;;9.60;;
9280;SDS011;4679;47.966;7.958;2023-05-16T12:13:58;11.30;;;9.13;;
9280;SDS011;4679;47.966;7.958;2023-05-16T12:16:00;10.33;;;8.97;;
9280;SDS011;4679;47.966;7.958;2023-05-16T12:18:05;13.37;;;9.07;;
9280;SDS011;4679;47.966;7.958;2023-05-16T12:20:08;10.90;;;9.20;;
9280;SDS011;4679;47.966;7.958;2023-05-16T12:22:14;10.20;;;9.07;;
9280;SDS011;4679;47.966;7.958;2023-05-16T12:24:17;10.40;;;8.70;;
9280;SDS011;4679;47.966;7.958;2023-05-16T12:26:22;9.63;;;8.13;;
9280;SDS011;4679;47.966;7.958;2023-05-16T12:28:29;9.20;;;8.30;;
9280;SDS011;4679;47.966;7.958;2023-05-16T12:30:32;8.27;;;7.27;;
9280;SDS011;4679;47.966;7.958;2023-05-16T12:32:35;8.50;;;7.70;;
9280;SDS011;4679;47.966;7.958;2023-05-16T12:34:39;8.53;;;7.07;;
9280;SDS011;4679;47.966;7.958;2023-05-16T12:36:50;8.03;;;7.27;;
9280;SDS011;4679;47.966;7.958;2023-05-16T12:38:53;7.90;;;7.13;;
9280;SDS011;4679;47.966;7.958;2023-05-16T12:40:56;8.00;;;7.20;;
9280;SDS011;4679;47.966;7.958;2023-05-16T12:42:59;8.33;;;7.43;;
9280;SDS011;4679;47.966;7.958;2023-05-16T12:45:02;7.93;;;7.17;;
9280;SDS011;4679;47.966;7.958;2023-05-16T12:47:09;9.13;;;8.23;;
9280;SDS011;4679;47.966;7.958;2023-05-16T12:49:12;7.63;;;6.90;;
9280;SDS011;4679;47.966;7.958;2023-05-16T12:51:16;8.43;;;7.73;;
9280;SDS011;4679;47.966;7.958;2023-05-16T12:53:19;10.20;;;8.43;;
9280;SDS011;4679;47.966;7.958;2023-05-16T12:55:21;8.10;;;7.37;;
9280;SDS011;4679;47.966;7.958;2023-05-16T12:57:23;8.80;;;8.07;;
9280;SDS011;4679;47.966;7.958;2023-05-16T12:59:25;9.17;;;8.33;;
9280;SDS011;4679;47.966;7.958;2023-05-16T13:01:28;8.20;;;7.40;;
9280;SDS011;4679;47.966;7.958;2023-05-16T13:03:30;8.40;;;7.60;;
9280;SDS011;4679;47.966;7.958;2023-05-16T13:05:33;9.10;;;8.10;;
9280;SDS011;4679;47.966;7.958;2023-05-16T13:07:37;9.33;;;8.43;;
9280;SDS011;4679;47.966;7.958;2023-05-16T13:09:40;8.63;;;7.83;;
9280;SDS011;4679;47.966;7.958;2023-05-16T13:11:42;8.90;;;8.20;;
9280;SDS011;4679;47.966;7.958;2023-05-16T13:13:44;7.93;;;7.10;;
9280;SDS011;4679;47.966;7.958;2023-05-16T13:15:46;7.57;;;6.83;;
9280;SDS011;4679;47.966;7.958;2023-05-16T13:17:48;7.03;;;6.43;;
9280;SDS011;4679;47.966;7.958;2023-05-16T13:19:50;5.87;;;5.43;;
9280;SDS011;4679;47.966;7.958;2023-05-16T13:21:52;7.27;;;6.50;;
9280;SDS011;4679;47.966;7.958;2023-05-16T13:23:56;7.60;;;6.90;;
9280;SDS011;4679;47.966;7.958;2023-05-16T13:25:59;6.77;;;6.23;;
9280;SDS011;4679;47.966;7.958;2023-05-16T13:28:01;7.53;;;6.63;;
9280;SDS011;4679;47.966;7.958;2023-05-16T13:30:03;7.70;;;7.00;;
9280;SDS011;4679;47.966;7.958;2023-05-16T13:32:07;6.37;;;5.87;;
9280;SDS011;4679;47.966;7.958;2023-05-16T13:34:09;7.40;;;6.73;;
9280;SDS011;4679;47.966;7.958;2023-05-16T13:36:10;7.00;;;6.30;;
9280;SDS011;4679;47.966;7.958;2023-05-16T13:38:13;9.73;;;7.47;;
9280;SDS011;4679;47.966;7.958;2023-05-16T13:40:16;8.37;;;7.67;;
9280;SDS011;4679;47.966;7.958;2023-05-16T13:42:18;7.37;;;6.77;;
9280;SDS011;4679;47.966;7.958;2023-05-16T13:44:21;8.70;;;7.90;;
9280;SDS011;4679;47.966;7.958;2023-05-16T13:46:22;8.27;;;7.27;;
9280;SDS011;4679;47.966;7.958;2023-05-16T13:48:26;8.27;;;7.63;;
9280;SDS011;4679;47.966;7.958;2023-05-16T13:50:27;9.53;;;7.57;;
9280;SDS011;4679;47.966;7.958;2023-05-16T13:52:29;8.57;;;7.83;;
9280;SDS011;4679;47.966;7.958;2023-05-16T13:54:31;8.03;;;7.37;;
9280;SDS011;4679;47.966;7.958;2023-05-16T13:56:35;8.07;;;7.50;;
9280;SDS011;4679;47.966;7.958;2023-05-16T13:58:37;6.83;;;6.27;;
9280;SDS011;4679;47.966;7.958;2023-05-16T14:00:39;10.30;;;7.03;;
9280;SDS011;4679;47.966;7.958;2023-05-16T14:02:41;6.83;;;6.33;;
9280;SDS011;4679;47.966;7.958;2023-05-16T14:04:44;8.00;;;7.30;;
9280;SDS011;4679;47.966;7.958;2023-05-16T14:06:45;7.90;;;7.20;;
9280;SDS011;4679;47.966;7.958;2023-05-16T14:08:48;7.27;;;6.67;;
9280;SDS011;4679;47.966;7.958;2023-05-16T14:10:50;10.70;;;6.50;;
9280;SDS011;4679;47.966;7.958;2023-05-16T14:12:53;7.03;;;6.43;;
9280;SDS011;4679;47.966;7.958;2023-05-16T14:14:55;6.33;;;5.80;;
9280;SDS011;4679;47.966;7.958;2023-05-16T14:16:57;5.67;;;5.27;;
9280;SDS011;4679;47.966;7.958;2023-05-16T14:18:58;6.50;;;5.97;;
9280;SDS011;4679;47.966;7.958;2023-05-16T14:21:00;6.43;;;6.03;;
9280;SDS011;4679;47.966;7.958;2023-05-16T14:23:02;7.10;;;6.60;;
9280;SDS011;4679;47.966;7.958;2023-05-16T14:25:04;5.37;;;4.93;;
9280;SDS011;4679;47.966;7.958;2023-05-16T14:27:06;5.83;;;5.33;;
9280;SDS011;4679;47.966;7.958;2023-05-16T14:29:09;4.57;;;4.30;;
9280;SDS011;4679;47.966;7.958;2023-05-16T14:31:12;4.10;;;3.90;;
9280;SDS011;4679;47.966;7.958;2023-05-16T14:33:13;5.30;;;4.90;;
9280;SDS011;4679;47.966;7.958;2023-05-16T14:35:15;5.80;;;4.50;;
9280;SDS011;4679;47.966;7.958;2023-05-16T14:37:17;4.70;;;4.30;;
9280;SDS011;4679;47.966;7.958;2023-05-16T14:39:19;4.00;;;3.70;;
9280;SDS011;4679;47.966;7.958;2023-05-16T14:41:21;3.93;;;3.67;;
9280;SDS011;4679;47.966;7.958;2023-05-16T14:43:22;4.50;;;4.20;;
9280;SDS011;4679;47.966;7.958;2023-05-16T14:45:25;5.97;;;4.07;;
9280;SDS011;4679;47.966;7.958;2023-05-16T14:47:27;4.63;;;4.43;;
9280;SDS011;4679;47.966;7.958;2023-05-16T14:49:30;4.43;;;4.13;;
9280;SDS011;4679;47.966;7.958;2023-05-16T14:51:32;3.60;;;3.40;;
9280;SDS011;4679;47.966;7.958;2023-05-16T14:53:33;4.57;;;3.53;;
9280;SDS011;4679;47.966;7.958;2023-05-16T14:55:35;4.00;;;3.60;;
9280;SDS011;4679;47.966;7.958;2023-05-16T14:57:37;4.90;;;4.57;;
9280;SDS011;4679;47.966;7.958;2023-05-16T14:59:39;4.70;;;4.40;;
9280;SDS011;4679;47.966;7.958;2023-05-16T15:01:42;5.77;;;4.33;;
9280;SDS011;4679;47.966;7.958;2023-05-16T15:03:44;6.90;;;4.97;;
9280;SDS011;4679;47.966;7.958;2023-05-16T15:05:46;3.97;;;3.67;;
9280;SDS011;4679;47.966;7.958;2023-05-16T15:07:48;3.70;;;3.40;;
9280;SDS011;4679;47.966;7.958;2023-05-16T15:09:50;4.57;;;4.27;;
9280;SDS011;4679;47.966;7.958;2023-05-16T15:11:51;4.47;;;4.13;;
9280;SDS011;4679;47.966;7.958;2023-05-16T15:13:53;4.97;;;4.63;;
9280;SDS011;4679;47.966;7.958;2023-05-16T15:15:56;4.53;;;4.23;;
9280;SDS011;4679;47.966;7.958;2023-05-16T15:17:59;4.83;;;4.57;;
9280;SDS011;4679;47.966;7.958;2023-05-16T15:20:00;4.10;;;3.90;;
9280;SDS011;4679;47.966;7.958;2023-05-16T15:22:03;4.47;;;4.10;;
9280;SDS011;4679;47.966;7.958;2023-05-16T15:24:06;5.00;;;4.70;;
9280;SDS011;4679;47.966;7.958;2023-05-16T15:26:08;4.90;;;4.50;;
9280;SDS011;4679;47.966;7.958;2023-05-16T15:28:10;4.93;;;4.47;;
9280;SDS011;4679;47.966;7.958;2023-05-16T15:30:12;4.63;;;4.33;;
9280;SDS011;4679;47.966;7.958;2023-05-16T15:32:14;6.27;;;5.80;;
9280;SDS011;4679;47.966;7.958;2023-05-16T15:34:18;5.17;;;4.77;;
9280;SDS011;4679;47.966;7.958;2023-05-16T15:36:20;5.70;;;5.13;;
9280;SDS011;4679;47.966;7.958;2023-05-16T15:38:21;5.17;;;4.80;;
9280;SDS011;4679;47.966;7.958;2023-05-16T15:40:23;5.43;;;5.03;;
9280;SDS011;4679;47.966;7.958;2023-05-16T15:42:25;4.77;;;4.47;;
9280;SDS011;4679;47.966;7.958;2023-05-16T15:44:27;4.93;;;4.30;;
9280;SDS011;4679;47.966;7.958;2023-05-16T15:46:28;4.37;;;4.07;;
9280;SDS011;4679;47.966;7.958;2023-05-16T15:48:31;4.27;;;3.93;;
9280;SDS011;4679;47.966;7.958;2023-05-16T15:50:34;3.83;;;3.60;;
9280;SDS011;4679;47.966;7.958;2023-05-16T15:52:36;4.70;;;4.40;;
9280;SDS011;4679;47.966;7.958;2023-05-16T15:54:39;4.77;;;4.40;;
9280;SDS011;4679;47.966;7.958;2023-05-16T15:56:40;4.50;;;4.13;;
9280;SDS011;4679;47.966;7.958;2023-05-16T15:58:42;3.90;;;3.60;;
9280;SDS011;4679;47.966;7.958;2023-05-16T16:00:45;4.13;;;3.40;;
9280;SDS011;4679;47.966;7.958;2023-05-16T16:02:47;3.70;;;3.50;;
9280;SDS011;4679;47.966;7.958;2023-05-16T16:04:49;3.53;;;3.23;;
9280;SDS011;4679;47.966;7.958;2023-05-16T16:06:53;3.20;;;3.00;;
9280;SDS011;4679;47.966;7.958;2023-05-16T16:08:55;4.27;;;3.10;;
9280;SDS011;4679;47.966;7.958;2023-05-16T16:10:56;3.77;;;3.20;;
9280;SDS011;4679;47.966;7.958;2023-05-16T16:12:58;4.70;;;3.50;;
9280;SDS011;4679;47.966;7.958;2023-05-16T16:15:00;4.23;;;3.57;;
9280;SDS011;4679;47.966;7.958;2023-05-16T16:17:03;4.57;;;3.27;;
9280;SDS011;4679;47.966;7.958;2023-05-16T16:19:05;2.87;;;2.67;;
9280;SDS011;4679;47.966;7.958;2023-05-16T16:21:07;3.20;;;3.00;;
9280;SDS011;4679;47.966;7.958;2023-05-16T16:23:10;3.33;;;3.13;;
9280;SDS011;4679;47.966;7.958;2023-05-16T16:25:12;3.03;;;2.83;;
9280;SDS011;4679;47.966;7.958;2023-05-16T16:27:14;3.43;;;3.23;;
9280;SDS011;4679;47.966;7.958;2023-05-16T16:29:15;3.50;;;3.20;;
9280;SDS011;4679;47.966;7.958;2023-05-16T16:31:17;3.10;;;2.90;;
9280;SDS011;4679;47.966;7.958;2023-05-16T16:33:19;3.10;;;2.90;;
9280;SDS011;4679;47.966;7.958;2023-05-16T16:35:20;3.73;;;3.43;;
9280;SDS011;4679;47.966;7.958;2023-05-16T16:37:24;3.60;;;3.40;;
9280;SDS011;4679;47.966;7.958;2023-05-16T16:39:27;3.43;;;3.00;;
9280;SDS011;4679;47.966;7.958;2023-05-16T16:41:29;3.27;;;3.00;;
9280;SDS011;4679;47.966;7.958;2023-05-16T16:43:31;4.60;;;3.33;;
9280;SDS011;4679;47.966;7.958;2023-05-16T16:45:33;3.83;;;3.37;;
9280;SDS011;4679;47.966;7.958;2023-05-16T16:47:34;3.77;;;3.57;;
9280;SDS011;4679;47.966;7.958;2023-05-16T16:49:38;6.70;;;3.50;;
9280;SDS011;4679;47.966;7.958;2023-05-16T16:51:40;4.80;;;3.80;;
9280;SDS011;4679;47.966;7.958;2023-05-16T16:53:42;5.90;;;4.20;;
9280;SDS011;4679;47.966;7.958;2023-05-16T16:55:45;4.23;;;3.93;;
9280;SDS011;4679;47.966;7.958;2023-05-16T16:57:46;4.47;;;4.17;;
9280;SDS011;4679;47.966;7.958;2023-05-16T16:59:48;4.20;;;3.80;;
9280;SDS011;4679;47.966;7.958;2023-05-16T17:01:50;7.77;;;4.50;;
9280;SDS011;4679;47.966;7.958;2023-05-16T17:03:52;6.73;;;4.43;;
9280;SDS011;4679;47.966;7.958;2023-05-16T17:05:54;6.33;;;3.93;;
9280;SDS011;4679;47.966;7.958;2023-05-16T17:07:56;3.47;;;2.97;;
9280;SDS011;4679;47.966;7.958;2023-05-16T17:09:58;6.03;;;3.83;;
9280;SDS011;4679;47.966;7.958;2023-05-16T17:12:01;4.17;;;3.57;;
9280;SDS011;4679;47.966;7.958;2023-05-16T17:14:07;6.60;;;3.60;;
9280;SDS011;4679;47.966;7.958;2023-05-16T17:16:09;6.10;;;3.50;;
9280;SDS011;4679;47.966;7.958;2023-05-16T17:18:11;4.53;;;3.00;;
9280;SDS011;4679;47.966;7.958;2023-05-16T17:20:13;4.73;;;3.10;;
9280;SDS011;4679;47.966;7.958;2023-05-16T17:22:15;5.63;;;2.67;;
9280;SDS011;4679;47.966;7.958;2023-05-16T17:24:17;4.90;;;2.77;;
9280;SDS011;4679;47.966;7.958;2023-05-16T17:26:19;2.87;;;2.10;;
9280;SDS011;4679;47.966;7.958;2023-05-16T17:28:22;3.43;;;2.30;;
9280;SDS011;4679;47.966;7.958;2023-05-16T17:30:25;3.63;;;2.70;;
9280;SDS011;4679;47.966;7.958;2023-05-16T17:32:27;2.90;;;2.60;;
9280;SDS011;4679;47.966;7.958;2023-05-16T17:34:28;2.37;;;1.67;;
9280;SDS011;4679;47.966;7.958;2023-05-16T17:36:30;2.40;;;2.10;;
9280;SDS011;4679;47.966;7.958;2023-05-16T17:38:32;2.40;;;1.70;;
9280;SDS011;4679;47.966;7.958;2023-05-16T17:40:34;4.17;;;1.77;;
9280;SDS011;4679;47.966;7.958;2023-05-16T17:42:35;4.83;;;2.80;;
9280;SDS011;4679;47.966;7.958;2023-05-16T17:44:39;2.70;;;2.50;;
9280;SDS011;4679;47.966;7.958;2023-05-16T17:46:41;3.80;;;2.00;;
9280;SDS011;4679;47.966;7.958;2023-05-16T17:48:43;2.83;;;2.37;;
9280;SDS011;4679;47.966;7.958;2023-05-16T17:50:45;1.70;;;1.60;;
9280;SDS011;4679;47.966;7.958;2023-05-16T17:52:47;3.00;;;1.50;;
9280;SDS011;4679;47.966;7.958;2023-05-16T17:54:49;2.03;;;1.77;;
9280;SDS011;4679;47.966;7.958;2023-05-16T17:56:51;3.83;;;2.00;;
9280;SDS011;4679;47.966;7.958;2023-05-16T17:58:54;2.10;;;1.83;;
9280;SDS011;4679;47.966;7.958;2023-05-16T18:00:57;2.03;;;1.90;;
9280;SDS011;4679;47.966;7.958;2023-05-16T18:02:59;2.13;;;2.03;;
9280;SDS011;4679;47.966;7.958;2023-05-16T18:05:00;2.07;;;1.97;;
9280;SDS011;4679;47.966;7.958;2023-05-16T18:07:02;3.20;;;1.73;;
9280;SDS011;4679;47.966;7.958;2023-05-16T18:09:04;2.90;;;1.80;;
9280;SDS011;4679;47.966;7.958;2023-05-16T18:11:09;3.70;;;1.90;;
9280;SDS011;4679;47.966;7.958;2023-05-16T18:13:11;4.17;;;2.10;;
9280;SDS011;4679;47.966;7.958;2023-05-16T18:15:13;3.43;;;2.60;;
9280;SDS011;4679;47.966;7.958;2023-05-16T18:17:16;2.90;;;2.30;;
9280;SDS011;4679;47.966;7.958;2023-05-16T18:19:19;5.80;;;2.17;;
9280;SDS011;4679;47.966;7.958;2023-05-16T18:21:20;2.83;;;1.70;;
9280;SDS011;4679;47.966;7.958;2023-05-16T18:23:22;3.47;;;2.00;;
9280;SDS011;4679;47.966;7.958;2023-05-16T18:25:25;3.60;;;2.07;;
9280;SDS011;4679;47.966;7.958;2023-05-16T18:27:27;2.30;;;1.97;;
9280;SDS011;4679;47.966;7.958;2023-05-16T18:29:28;2.50;;;2.00;;
9280;SDS011;4679;47.966;7.958;2023-05-16T18:31:30;2.93;;;2.50;;
9280;SDS011;4679;47.966;7.958;2023-05-16T18:33:34;3.70;;;2.50;;
9280;SDS011;4679;47.966;7.958;2023-05-16T18:35:36;2.87;;;1.90;;
9280;SDS011;4679;47.966;7.958;2023-05-16T18:37:37;3.13;;;2.70;;